Arnott, Wisconsin
Current Conditions -  °F | °C
As of 1:35 AM on Wednesday 26 Nov 2014 (Local Time) from KSTE Reporting Station
Overcast Overcast  
Wind Chill: -11°   Ceiling: 5000
Heat Index: -11°   Visibility: 10mi
Dew Point: -12°   Wind: 0mph
Humidity: 93%   Direction: NA
Pressure: 30.13"   Gusts: NA
Location:  44.5531°N, 89.5186°W
Report Text: KSTE 260735Z AUTO 00000KT 10SM OVC050 M11/M12 A3013 RMK AO2 T11061116
Loading
Personal Weather Stations






























Interactive Weather Map New forecast layout! Learn more

10-Day Weather Forecast

Advertisements
Track Severe Weather on mobile